Time;durP1;ratioP1;P1;durP2;ratioP2;P2;SDS_P1;SDS_P2;PMS_P1;PMS_P2;Temp;Humidity;BMP_temperature;BMP_pressure;BME280_temperature;BME280_humidity;BME280_pressure;Samples;Min_cycle;Max_cycle;Signal;HPM_P1;HPM_P2
2022/07/11 00:02:06;;;;;;;2.17;1.50;;;17.00;99.90;;;;;;5033495;28;20432;-57
2022/07/11 00:04:33;;;;;;;2.50;1.52;;;16.90;99.90;;;;;;5033412;28;20025;-56
2022/07/11 00:07:00;;;;;;;4.13;2.00;;;16.90;99.90;;;;;;5033455;28;20026;-58
2022/07/11 00:09:26;;;;;;;2.47;1.63;;;16.90;99.90;;;;;;5036495;28;20037;-57
2022/07/11 00:11:51;;;;;;;5.38;1.80;;;17.00;99.90;;;;;;5053511;28;20116;-55
2022/07/11 00:14:18;;;;;;;5.40;1.40;;;16.80;99.90;;;;;;5053275;28;20100;-57
2022/07/11 00:16:44;;;;;;;3.30;1.48;;;16.70;99.90;;;;;;5053331;28;20427;-55
2022/07/11 00:19:10;;;;;;;2.38;1.38;;;16.60;99.90;;;;;;5046789;28;20034;-55
2022/07/11 00:21:36;;;;;;;4.00;1.60;;;16.60;99.90;;;;;;5033369;28;20029;-57
2022/07/11 00:24:07;;;;;;;3.58;1.25;;;16.60;99.90;;;;;;5046863;28;20039;-55
2022/07/11 00:26:36;;;;;;;3.30;1.40;;;16.70;99.90;;;;;;5053223;28;20033;-56
2022/07/11 00:29:02;;;;;;;4.63;1.10;;;16.70;99.90;;;;;;5001768;28;20110;-55
2022/07/11 00:31:28;;;;;;;2.85;1.70;;;16.60;99.90;;;;;;5052839;28;20045;-57
2022/07/11 00:33:55;;;;;;;4.43;1.38;;;16.70;99.90;;;;;;5053277;28;20079;-55
2022/07/11 00:36:21;;;;;;;1.95;1.23;;;16.60;99.90;;;;;;5053008;28;20029;-55
2022/07/11 00:38:47;;;;;;;2.10;1.10;;;16.50;99.90;;;;;;5021984;28;20059;-53
2022/07/11 00:41:13;;;;;;;2.50;1.33;;;16.50;99.90;;;;;;5022224;28;20037;-57
2022/07/11 00:43:41;;;;;;;3.72;1.35;;;16.40;99.90;;;;;;5057186;28;20036;-57
2022/07/11 00:46:08;;;;;;;18.00;2.42;;;16.50;99.90;;;;;;5039513;28;20063;-54
2022/07/11 00:48:35;;;;;;;2.40;1.35;;;16.40;99.90;;;;;;5056885;28;20384;-59
2022/07/11 00:51:04;;;;;;;4.57;1.55;;;16.40;99.90;;;;;;5056980;28;20021;-55
2022/07/11 00:53:32;;;;;;;2.83;1.70;;;16.30;99.90;;;;;;4989288;28;20062;-55
2022/07/11 00:55:59;;;;;;;2.28;1.50;;;16.30;99.90;;;;;;5056984;28;20036;-53
2022/07/11 00:58:25;;;;;;;2.13;1.23;;;16.30;99.90;;;;;;5056730;28;20132;-55
2022/07/11 01:00:51;;;;;;;1.85;1.60;;;16.30;99.90;;;;;;5057188;28;20036;-56
2022/07/11 01:03:17;;;;;;;3.55;1.40;;;16.20;99.90;;;;;;5057223;28;20104;-53
2022/07/11 01:05:43;;;;;;;3.22;1.35;;;16.10;99.90;;;;;;5005076;28;20029;-54
2022/07/11 01:08:08;;;;;;;3.30;1.48;;;16.00;99.90;;;;;;5056777;28;20563;-56
2022/07/11 01:10:35;;;;;;;3.63;1.40;;;16.00;99.90;;;;;;5056728;28;20025;-55
2022/07/11 01:13:01;;;;;;;2.03;1.40;;;16.10;99.90;;;;;;5057088;28;20057;-54
2022/07/11 01:15:27;;;;;;;3.45;1.52;;;16.00;99.90;;;;;;5057003;28;20025;-58
2022/07/11 01:17:53;;;;;;;3.20;1.17;;;16.10;99.90;;;;;;5056567;28;20029;-54
2022/07/11 01:20:25;;;;;;;2.42;1.45;;;16.10;99.90;;;;;;5056568;28;20033;-56
2022/07/11 01:22:52;;;;;;;;;;;16.10;99.90;;;;;;5056843;28;20174;-56
2022/07/11 01:25:30;;;;;;;3.42;1.73;;;16.10;99.90;;;;;;5056891;28;19905;-53
2022/07/11 01:28:04;;;;;;;2.35;1.27;;;16.00;99.90;;;;;;5056472;28;20076;-55
2022/07/11 01:30:31;;;;;;;2.92;1.55;;;16.10;99.90;;;;;;5006485;28;20029;-54
2022/07/11 01:32:58;;;;;;;2.95;1.55;;;16.10;99.90;;;;;;5056347;28;20029;-56
2022/07/11 01:35:24;;;;;;;4.65;1.60;;;16.00;99.90;;;;;;5056531;28;20025;-56
2022/07/11 01:37:50;;;;;;;2.72;1.45;;;16.00;99.90;;;;;;5056232;28;20079;-56
2022/07/11 01:40:17;;;;;;;2.47;1.70;;;16.00;99.90;;;;;;5021371;28;20427;-55
2022/07/11 01:42:43;;;;;;;3.05;1.95;;;15.90;99.90;;;;;;5055882;28;20033;-54
2022/07/11 01:45:12;;;;;;;3.42;1.73;;;15.90;99.90;;;;;;5021171;28;20087;-55
2022/07/11 01:47:39;;;;;;;3.83;1.70;;;15.90;99.90;;;;;;5055877;28;20029;-56
2022/07/11 01:50:06;;;;;;;3.88;1.85;;;15.90;99.90;;;;;;5020204;28;20120;-54
2022/07/11 01:52:32;;;;;;;3.88;1.50;;;15.80;99.90;;;;;;4956076;28;20087;-56
2022/07/11 01:54:58;;;;;;;4.68;1.90;;;15.80;99.90;;;;;;5056036;28;20461;-56
2022/07/11 01:57:24;;;;;;;2.85;1.70;;;15.80;99.90;;;;;;5055811;28;20029;-54
2022/07/11 01:59:50;;;;;;;3.70;1.73;;;15.90;99.90;;;;;;5055862;28;20021;-55
2022/07/11 02:02:16;;;;;;;3.25;1.90;;;15.70;99.90;;;;;;5055571;28;20029;-55
2022/07/11 02:04:42;;;;;;;5.97;1.85;;;15.80;99.90;;;;;;5055449;28;20481;-55
2022/07/11 02:07:09;;;;;;;3.38;1.65;;;15.90;99.90;;;;;;5020554;28;20037;-54
2022/07/11 02:09:35;;;;;;;3.28;2.00;;;15.80;99.90;;;;;;5055720;28;20032;-56
2022/07/11 02:12:01;;;;;;;2.97;1.60;;;15.80;99.90;;;;;;5055481;28;20488;-54
2022/07/11 02:14:26;;;;;;;3.33;2.42;;;15.80;99.90;;;;;;5055536;28;20029;-54
2022/07/11 02:16:52;;;;;;;4.05;1.92;;;15.80;99.90;;;;;;5055284;28;20033;-54
2022/07/11 02:19:18;;;;;;;2.72;1.80;;;15.80;99.90;;;;;;5055272;28;20116;-56
2022/07/11 02:21:43;;;;;;;5.38;1.90;;;15.70;99.90;;;;;;5036875;28;20052;-56
2022/07/11 02:24:10;;;;;;;1.80;1.55;;;;;;;;;;5055351;28;20117;-55
2022/07/11 02:26:35;;;;;;;2.92;1.60;;;15.60;99.90;;;;;;5055129;28;20039;-56
2022/07/11 02:29:01;;;;;;;3.00;1.60;;;15.50;99.90;;;;;;5055430;28;20025;-54
2022/07/11 02:31:27;;;;;;;2.90;1.80;;;15.40;99.90;;;;;;4971215;28;20056;-53
2022/07/11 02:33:53;;;;;;;4.43;1.85;;;15.50;99.90;;;;;;5054979;28;20025;-54
2022/07/11 02:36:19;;;;;;;3.80;1.80;;;15.40;99.90;;;;;;5020199;28;20064;-56
2022/07/11 02:38:44;;;;;;;2.60;1.80;;;15.40;99.90;;;;;;5055150;28;20082;-53
2022/07/11 02:41:10;;;;;;;12.45;3.33;;;15.40;99.90;;;;;;5019888;28;20045;-56
2022/07/11 02:43:36;;;;;;;4.30;1.83;;;15.50;99.90;;;;;;5054932;28;20033;-56
2022/07/11 02:46:02;;;;;;;3.53;2.05;;;15.50;99.90;;;;;;5036478;28;20040;-56
2022/07/11 02:48:28;;;;;;;3.33;1.92;;;15.50;99.90;;;;;;5054828;28;20061;-56
2022/07/11 02:50:53;;;;;;;3.33;1.80;;;15.40;99.90;;;;;;5054961;28;20021;-56
2022/07/11 02:53:19;;;;;;;5.30;1.67;;;15.50;99.90;;;;;;5054708;28;20025;-58
2022/07/11 02:55:45;;;;;;;2.55;2.15;;;15.30;99.90;;;;;;4970964;28;20037;-54
2022/07/11 02:58:11;;;;;;;4.07;1.70;;;15.10;99.90;;;;;;5054618;28;20033;-56
2022/07/11 03:00:37;;;;;;;4.38;2.05;;;15.20;99.90;;;;;;5053438;28;20086;-55
2022/07/11 03:03:03;;;;;;;4.05;1.75;;;15.10;99.90;;;;;;5019519;28;20492;-54
2022/07/11 03:05:28;;;;;;;3.72;1.77;;;15.00;99.90;;;;;;5054473;28;20029;-56
2022/07/11 03:07:54;;;;;;;2.80;1.80;;;15.00;99.90;;;;;;5054263;28;20032;-56
2022/07/11 03:10:23;;;;;;;3.42;1.73;;;14.90;99.90;;;;;;5054652;28;20025;-55
2022/07/11 03:12:49;;;;;;;3.80;1.88;;;15.00;99.90;;;;;;5054583;28;20377;-55
2022/07/11 03:15:15;;;;;;;3.78;1.80;;;15.10;99.90;;;;;;5054278;28;20226;-56
2022/07/11 03:17:40;;;;;;;4.85;2.10;;;15.10;99.90;;;;;;5054253;28;20177;-53
2022/07/11 03:20:07;;;;;;;3.10;1.95;;;15.10;99.90;;;;;;5054318;28;20032;-56
2022/07/11 03:22:33;;;;;;;3.05;1.55;;;15.20;99.90;;;;;;5003472;28;20041;-56
2022/07/11 03:25:00;;;;;;;3.95;1.63;;;15.20;99.90;;;;;;5054053;28;20500;-56
2022/07/11 03:27:26;;;;;;;4.43;1.50;;;15.20;99.90;;;;;;5053850;28;20033;-55
2022/07/11 03:29:52;;;;;;;2.20;1.42;;;15.20;99.90;;;;;;5054180;28;20534;-54
2022/07/11 03:32:20;;;;;;;6.13;1.90;;;15.20;99.90;;;;;;5053817;28;20053;-55
2022/07/11 03:35:40;;;;;;;4.93;1.75;;;15.10;99.90;;;;;;5053982;28;20072;-54
2022/07/11 03:37:32;;;;;;;4.00;1.60;;;15.20;99.90;;;;;;5053757;28;20037;-55
2022/07/11 03:39:58;;;;;;;2.50;1.80;;;15.10;99.90;;;;;;5053908;28;20083;-54
2022/07/11 03:42:24;;;;;;;3.40;1.80;;;15.20;99.90;;;;;;5054254;28;20033;-54
2022/07/11 03:44:51;;;;;;;3.85;2.00;;;15.10;99.90;;;;;;5018841;28;20406;-57
2022/07/11 03:47:17;;;;;;;2.20;1.80;;;15.10;99.90;;;;;;5053646;28;20033;-54
2022/07/11 03:49:43;;;;;;;5.32;2.00;;;15.20;99.90;;;;;;5053720;28;20025;-55
2022/07/11 03:52:09;;;;;;;4.03;2.25;;;15.20;99.90;;;;;;5053546;28;20025;-56
2022/07/11 03:54:35;;;;;;;3.22;2.03;;;15.30;99.90;;;;;;5053637;28;20028;-54
2022/07/11 03:57:00;;;;;;;3.28;1.70;;;15.30;99.90;;;;;;5053469;28;20029;-55
2022/07/11 03:59:26;;;;;;;5.10;2.53;;;15.20;99.90;;;;;;5018724;28;20036;-56
2022/07/11 04:01:52;;;;;;;3.35;1.98;;;15.30;99.90;;;;;;5011616;28;20049;-54
2022/07/11 04:04:17;;;;;;;2.85;1.77;;;15.20;99.90;;;;;;5042931;28;20469;-56
2022/07/11 04:06:44;;;;;;;3.42;1.85;;;15.30;99.90;;;;;;4999806;28;20076;-54
2022/07/11 04:09:10;;;;;;;4.75;1.98;;;15.40;99.90;;;;;;4982904;28;20042;-56
2022/07/11 04:11:36;;;;;;;5.28;1.67;;;15.40;99.90;;;;;;5051734;28;20040;-55
2022/07/11 04:14:02;;;;;;;3.75;1.83;;;15.30;99.90;;;;;;5053766;28;20033;-56
2022/07/11 04:16:28;;;;;;;3.22;1.80;;;15.40;99.90;;;;;;5051823;28;20030;-56
2022/07/11 04:18:53;;;;;;;2.88;1.90;;;15.50;99.90;;;;;;5051797;28;20057;-55
2022/07/11 04:21:19;;;;;;;2.22;1.75;;;15.60;99.90;;;;;;5051415;28;20037;-55
2022/07/11 04:23:45;;;;;;;6.72;1.52;;;15.60;99.90;;;;;;5046524;28;20025;-56
2022/07/11 04:26:11;;;;;;;5.85;2.05;;;15.60;99.90;;;;;;5003755;28;20882;-54
2022/07/11 04:28:36;;;;;;;2.15;1.35;;;15.70;99.90;;;;;;4991058;28;20086;-55
2022/07/11 04:31:02;;;;;;;1.77;1.40;;;15.70;99.90;;;;;;5069919;28;20041;-55
2022/07/11 04:33:29;;;;;;;3.65;1.50;;;15.60;99.90;;;;;;4964427;28;20057;-56
2022/07/11 04:35:55;;;;;;;4.00;1.67;;;15.60;99.90;;;;;;5058811;28;20044;-55
2022/07/11 04:38:21;;;;;;;3.28;1.50;;;15.80;99.90;;;;;;5061178;28;20385;-54
2022/07/11 04:40:48;;;;;;;2.38;1.55;;;15.90;99.90;;;;;;4980232;28;20091;-56
2022/07/11 04:43:14;;;;;;;2.83;1.45;;;16.00;99.90;;;;;;5046880;28;20029;-55
2022/07/11 04:45:40;;;;;;;6.18;1.50;;;15.90;99.90;;;;;;5019602;28;20033;-55
2022/07/11 04:48:06;;;;;;;1.98;1.63;;;15.90;99.90;;;;;;5049806;28;20135;-54
2022/07/11 04:50:32;;;;;;;3.70;1.70;;;15.90;99.90;;;;;;5049040;28;20021;-55
2022/07/11 04:52:58;;;;;;;2.03;1.42;;;16.00;99.90;;;;;;5033786;28;20443;-56
2022/07/11 04:55:24;;;;;;;2.95;1.60;;;16.10;99.90;;;;;;5049700;28;20018;-57
2022/07/11 04:57:50;;;;;;;2.65;1.40;;;16.20;99.90;;;;;;5049624;28;20078;-54
2022/07/11 05:00:16;;;;;;;2.70;1.33;;;16.30;99.90;;;;;;5049832;28;20028;-53
2022/07/11 05:02:42;;;;;;;2.58;1.35;;;16.50;99.90;;;;;;5041746;28;20053;-56
2022/07/11 05:05:08;;;;;;;2.70;1.60;;;16.40;99.90;;;;;;4988630;28;20445;-56
2022/07/11 05:07:34;;;;;;;2.55;1.10;;;16.60;99.90;;;;;;5055015;28;20107;-54
2022/07/11 05:10:00;;;;;;;4.28;1.45;;;16.70;99.90;;;;;;5060503;28;20082;-55
2022/07/11 05:12:25;;;;;;;6.18;1.52;;;16.80;99.90;;;;;;5021908;28;20052;-54
2022/07/11 05:14:51;;;;;;;3.47;2.28;;;16.80;99.90;;;;;;5052493;28;20472;-54
2022/07/11 05:17:17;;;;;;;3.53;1.30;;;16.80;99.90;;;;;;5061171;28;20033;-55
2022/07/11 05:19:43;;;;;;;2.10;1.10;;;16.80;99.90;;;;;;4977357;28;20036;-55
2022/07/11 05:22:08;;;;;;;3.42;1.15;;;16.90;99.90;;;;;;5014336;28;20052;-53
2022/07/11 05:24:34;;;;;;;2.72;1.40;;;17.10;99.90;;;;;;4997711;28;20071;-55
2022/07/11 05:27:00;;;;;;;1.83;1.20;;;17.20;99.90;;;;;;5013375;28;20128;-54
2022/07/11 05:29:26;;;;;;;2.33;1.25;;;17.10;99.90;;;;;;4990265;28;20041;-55
2022/07/11 05:31:52;;;;;;;2.78;1.17;;;17.30;99.90;;;;;;5056304;28;20041;-55
2022/07/11 05:34:18;;;;;;;4.85;1.17;;;17.30;99.90;;;;;;5061610;28;20391;-56
2022/07/11 05:36:44;;;;;;;2.53;1.10;;;17.30;99.90;;;;;;5065391;28;20078;-56
2022/07/11 05:39:10;;;;;;;3.30;1.20;;;;;;;;;;5030291;28;20045;-53
2022/07/11 05:41:36;;;;;;;3.05;1.00;;;17.70;99.90;;;;;;5072466;28;20043;-54
2022/07/11 05:44:02;;;;;;;1.10;1.00;;;17.70;99.90;;;;;;5065483;28;20025;-54
2022/07/11 05:46:28;;;;;;;7.07;1.27;;;17.70;99.90;;;;;;5065848;28;20020;-56
2022/07/11 05:48:53;;;;;;;1.77;0.90;;;17.70;99.90;;;;;;5065660;28;20460;-56
2022/07/11 05:51:19;;;;;;;6.55;1.15;;;17.80;99.90;;;;;;5065674;28;20036;-55
2022/07/11 05:53:45;;;;;;;2.47;1.08;;;18.00;99.90;;;;;;5067370;28;20123;-55
2022/07/11 05:56:11;;;;;;;1.23;1.02;;;18.00;99.90;;;;;;5069733;28;20115;-54
2022/07/11 05:58:36;;;;;;;2.75;1.15;;;18.20;99.90;;;;;;5065224;28;20094;-56
2022/07/11 06:01:02;;;;;;;3.58;0.93;;;18.10;99.90;;;;;;5009265;28;20052;-54
2022/07/11 06:03:28;;;;;;;3.20;1.23;;;18.30;99.90;;;;;;5062517;28;20081;-57
2022/07/11 06:05:53;;;;;;;1.48;0.73;;;18.20;99.90;;;;;;5058176;28;20051;-56
2022/07/11 06:11:03;;;;;;;3.47;0.93;;;18.10;99.90;;;;;;5055884;28;20080;-54
2022/07/11 06:13:29;;;;;;;3.65;1.30;;;18.10;99.90;;;;;;5051171;28;20437;-55
2022/07/11 06:15:55;;;;;;;1.80;1.10;;;18.30;99.90;;;;;;5050075;28;20380;-55
2022/07/11 06:18:21;;;;;;;4.72;1.40;;;18.40;99.90;;;;;;5052905;28;20044;-54
2022/07/11 06:20:47;;;;;;;2.60;1.35;;;18.50;99.90;;;;;;5054955;28;20065;-53
2022/07/11 06:23:13;;;;;;;3.10;1.02;;;18.60;99.90;;;;;;5059843;28;20040;-55
2022/07/11 06:25:38;;;;;;;2.67;1.15;;;18.70;99.90;;;;;;5055871;28;20029;-54
2022/07/11 06:28:04;;;;;;;1.77;1.10;;;18.80;99.90;;;;;;5063990;28;20065;-53
2022/07/11 06:30:31;;;;;;;2.95;1.00;;;18.90;99.90;;;;;;5062653;28;20028;-55
2022/07/11 06:32:59;;;;;;;1.70;0.80;;;18.80;99.90;;;;;;5071630;28;20100;-55
2022/07/11 06:35:25;;;;;;;3.83;1.00;;;18.80;99.90;;;;;;5065862;28;20039;-55
2022/07/11 06:37:51;;;;;;;2.30;1.10;;;18.80;99.90;;;;;;5062541;28;20036;-54
2022/07/11 06:40:17;;;;;;;3.40;0.88;;;19.30;99.90;;;;;;5069358;28;20418;-54
2022/07/11 06:42:44;;;;;;;4.85;1.33;;;18.90;99.90;;;;;;5059652;28;20040;-55
2022/07/11 06:45:10;;;;;;;1.35;0.73;;;19.10;99.90;;;;;;5064370;28;20033;-55
2022/07/11 06:47:36;;;;;;;1.92;1.15;;;19.10;99.90;;;;;;4950394;28;20039;-54
2022/07/11 06:50:02;;;;;;;4.55;0.88;;;19.10;99.90;;;;;;4980064;28;20065;-54
2022/07/11 06:52:28;;;;;;;6.68;1.15;;;19.20;99.90;;;;;;4986640;28;20481;-54
2022/07/11 06:54:54;;;;;;;2.33;0.90;;;19.30;99.90;;;;;;4985578;28;20048;-55
2022/07/11 06:57:20;;;;;;;1.92;0.85;;;19.30;99.90;;;;;;4983267;28;20038;-54
2022/07/11 06:59:45;;;;;;;4.97;1.48;;;19.30;99.90;;;;;;4984208;28;20052;-55
2022/07/11 07:02:11;;;;;;;1.35;0.80;;;19.50;99.90;;;;;;4984431;28;20058;-54
2022/07/11 07:04:37;;;;;;;2.17;0.90;;;19.50;99.90;;;;;;4982420;28;20066;-54
2022/07/11 07:07:03;;;;;;;3.05;1.02;;;19.50;99.90;;;;;;4986847;28;20501;-54
2022/07/11 07:09:29;;;;;;;3.10;1.63;;;19.50;99.90;;;;;;4983241;28;20027;-54
2022/07/11 07:11:55;;;;;;;7.53;3.72;;;19.60;99.90;;;;;;4988463;28;20755;-55
2022/07/11 07:14:21;;;;;;;4.18;1.30;;;19.40;99.90;;;;;;4982986;28;20047;-54
2022/07/11 07:16:47;;;;;;;1.92;0.90;;;19.50;99.90;;;;;;4976794;28;20407;-54
2022/07/11 07:19:13;;;;;;;2.28;0.88;;;19.60;99.90;;;;;;5052119;28;20499;-54
2022/07/11 07:21:39;;;;;;;3.47;1.10;;;19.80;99.90;;;;;;5064157;28;20048;-55
2022/07/11 07:24:05;;;;;;;2.67;1.00;;;19.90;99.90;;;;;;5026791;28;20075;-56
2022/07/11 07:26:31;;;;;;;1.52;0.80;;;19.80;99.90;;;;;;5053488;28;20487;-54
2022/07/11 07:28:57;;;;;;;3.70;1.13;;;20.10;99.90;;;;;;5059577;28;20028;-54
2022/07/11 07:31:24;;;;;;;5.20;1.02;;;20.10;99.90;;;;;;5056520;28;20431;-54
2022/07/11 07:33:50;;;;;;;2.40;0.73;;;20.50;99.90;;;;;;5053345;28;20459;-55
2022/07/11 07:36:16;;;;;;;1.23;0.77;;;20.50;99.90;;;;;;5057177;28;20028;-55
2022/07/11 07:38:46;;;;;;;3.33;1.30;;;20.50;99.90;;;;;;5045284;28;20746;-53
2022/07/11 07:41:13;;;;;;;1.80;0.90;;;20.60;99.90;;;;;;5049610;28;20041;-55
2022/07/11 07:43:39;;;;;;;4.70;1.42;;;20.70;99.90;;;;;;5034895;28;20409;-55
2022/07/11 07:46:05;;;;;;;2.22;0.82;;;20.90;99.90;;;;;;5044151;28;20519;-54
2022/07/11 07:48:31;;;;;;;8.20;3.45;;;20.70;99.90;;;;;;5002106;28;20040;-55
2022/07/11 07:50:57;;;;;;;2.40;0.80;;;21.20;99.90;;;;;;5062456;28;20035;-55
2022/07/11 07:53:22;;;;;;;2.83;1.00;;;20.90;99.90;;;;;;5060469;28;20035;-55
2022/07/11 07:55:49;;;;;;;2.85;1.08;;;21.00;99.90;;;;;;5054657;28;20074;-54
2022/07/11 07:58:15;;;;;;;2.60;1.08;;;20.90;99.90;;;;;;5038424;28;20040;-55
2022/07/11 08:03:25;;;;;;;2.67;1.15;;;21.20;99.90;;;;;;5057723;28;20099;-55
2022/07/11 08:05:51;;;;;;;3.55;1.20;;;21.20;99.90;;;;;;5058063;28;20036;-59
2022/07/11 08:08:16;;;;;;;5.07;1.30;;;21.60;99.90;;;;;;4994575;28;20056;-51
2022/07/11 08:10:42;;;;;;;2.08;0.63;;;21.80;99.90;;;;;;5051164;28;20059;-52
2022/07/11 08:13:08;;;;;;;2.40;0.80;;;21.60;99.90;;;;;;5056914;28;20448;-51
2022/07/11 08:15:34;;;;;;;2.72;0.80;;;21.70;99.90;;;;;;5011532;28;20059;-51
2022/07/11 08:17:59;;;;;;;4.30;0.90;;;21.60;99.90;;;;;;5061948;28;20028;-52
2022/07/11 08:20:25;;;;;;;1.70;0.82;;;21.80;99.90;;;;;;5070133;28;20029;-51
2022/07/11 08:22:51;;;;;;;1.88;0.80;;;21.80;99.90;;;;;;5052176;28;20044;-51
2022/07/11 08:25:17;;;;;;;4.70;1.00;;;21.60;99.80;;;;;;5010654;28;20090;-52
2022/07/11 08:27:43;;;;;;;5.03;1.00;;;21.70;99.40;;;;;;5049373;28;20443;-52
2022/07/11 08:30:09;;;;;;;2.30;0.85;;;21.90;99.90;;;;;;5056388;28;20032;-51
2022/07/11 08:32:40;;;;;;;3.65;1.23;;;21.80;99.10;;;;;;5047278;28;20049;-53
2022/07/11 08:35:07;;;;;;;2.88;1.00;;;21.90;99.30;;;;;;5049637;28;20561;-52
2022/07/11 08:37:34;;;;;;;2.92;1.48;;;22.10;98.80;;;;;;5049582;28;20030;-53
2022/07/11 08:40:00;;;;;;;2.95;0.90;;;22.30;98.90;;;;;;5043688;28;20033;-54
2022/07/11 08:42:32;;;;;;;2.42;1.05;;;22.40;97.80;;;;;;5052570;28;20509;-54
2022/07/11 08:44:59;;;;;;;1.30;0.82;;;22.50;96.90;;;;;;5058205;28;20142;-53
2022/07/11 08:47:25;;;;;;;3.22;1.17;;;23.00;99.90;;;;;;5061888;28;20522;-54
2022/07/11 08:49:52;;;;;;;2.75;0.98;;;22.90;99.90;;;;;;5064957;28;20380;-52
2022/07/11 08:52:19;;;;;;;9.88;1.33;;;22.70;96.10;;;;;;5066151;28;20028;-54
2022/07/11 08:54:46;;;;;;;3.33;1.30;;;22.50;96.50;;;;;;5056033;28;20037;-54
2022/07/11 08:57:13;;;;;;;4.22;1.60;;;22.60;96.10;;;;;;5045009;28;20040;-55
2022/07/11 08:59:41;;;;;;;5.93;1.27;;;22.80;97.10;;;;;;5010936;28;20068;-52
2022/07/11 09:02:09;;;;;;;2.75;1.13;;;22.60;96.00;;;;;;5064552;28;20480;-53
2022/07/11 09:04:35;;;;;;;2.03;0.80;;;22.70;95.90;;;;;;5059122;28;20074;-53
2022/07/11 09:07:01;;;;;;;3.90;1.52;;;22.90;95.50;;;;;;4965916;28;20048;-53
2022/07/11 09:09:30;;;;;;;4.95;1.00;;;22.80;94.70;;;;;;5064861;28;20039;-53
2022/07/11 09:11:57;;;;;;;2.92;1.00;;;23.10;95.10;;;;;;5052509;28;20075;-52
2022/07/11 09:14:24;;;;;;;2.22;0.95;;;23.00;93.90;;;;;;5005953;28;20477;-54
2022/07/11 09:17:01;;;;;;;4.45;1.00;;;23.20;94.40;;;;;;5004375;28;20529;-53
2022/07/11 09:19:30;;;;;;;3.65;0.93;;;23.50;95.00;;;;;;5004468;28;20039;-53
2022/07/11 09:28:01;;;;;;;3.83;1.00;;;22.90;94.10;;;;;;4974680;28;20046;-54
2022/07/11 09:30:39;;;;;;;3.45;1.10;;;23.10;94.70;;;;;;4958281;28;20418;-54
2022/07/11 09:33:10;;;;;;;4.10;0.88;;;23.10;93.80;;;;;;4957926;28;20062;-54
2022/07/11 09:35:39;;;;;;;2.28;0.80;;;23.00;94.10;;;;;;4965782;28;20511;-54
2022/07/11 09:38:16;;;;;;;2.95;1.35;;;22.80;93.50;;;;;;4958242;28;20151;-54
2022/07/11 09:40:47;;;;;;;3.13;0.93;;;23.00;93.60;;;;;;4958309;28;20035;-54
2022/07/11 09:43:22;;;;;;;2.47;0.90;;;23.30;94.50;;;;;;4973606;28;20105;-55
2022/07/11 09:45:48;;;;;;;3.30;0.60;;;23.40;92.70;;;;;;4969559;28;20039;-53
2022/07/11 09:48:14;;;;;;;1.92;0.80;;;23.30;93.00;;;;;;4923269;28;20182;-53
2022/07/11 09:50:53;;;;;;;2.15;1.00;;;23.30;92.30;;;;;;4972395;28;20033;-52
2022/07/11 09:53:20;;;;;;;2.55;0.77;;;23.70;90.60;;;;;;4990046;28;20510;-52
2022/07/11 09:55:46;;;;;;;2.42;0.93;;;23.40;90.90;;;;;;4995497;28;20132;-52
2022/07/11 09:58:14;;;;;;;1.27;0.73;;;23.90;91.40;;;;;;4973203;28;20038;-53
2022/07/11 10:00:40;;;;;;;4.22;1.05;;;23.70;91.30;;;;;;4989465;28;20027;-53
2022/07/11 10:03:08;;;;;;;0.75;0.60;;;23.70;91.90;;;;;;5057100;28;20037;-52
2022/07/11 10:05:34;;;;;;;2.88;0.77;;;23.60;91.00;;;;;;5060851;28;20021;-52
2022/07/11 10:08:01;;;;;;;3.53;0.93;;;23.30;91.30;;;;;;5069735;28;20024;-52
2022/07/11 10:10:28;;;;;;;1.40;0.90;;;23.40;91.00;;;;;;5063941;28;20024;-52
2022/07/11 10:12:54;;;;;;;4.10;1.60;;;23.30;91.40;;;;;;5044978;28;20075;-52
2022/07/11 10:15:28;;;;;;;2.20;0.70;;;23.50;91.30;;;;;;5028540;28;20037;-52
2022/07/11 10:18:02;;;;;;;4.85;1.30;;;23.30;91.20;;;;;;5061534;28;20020;-52
2022/07/11 10:20:33;;;;;;;4.93;1.40;;;23.50;91.30;;;;;;5060140;28;20419;-52
2022/07/11 10:23:26;;;;;;;1.25;0.57;;;23.50;90.80;;;;;;5060382;28;20041;-52
2022/07/11 10:26:15;;;;;;;3.03;0.82;;;23.20;90.80;;;;;;5059058;28;20040;-52
2022/07/11 10:28:56;;;;;;;3.95;0.93;;;23.30;91.70;;;;;;5067000;28;20025;-52
2022/07/11 10:31:27;;;;;;;1.75;0.93;;;23.10;91.50;;;;;;5056319;28;20057;-52
2022/07/11 10:34:03;;;;;;;2.80;0.80;;;23.80;91.40;;;;;;5063531;28;20399;-52
2022/07/11 10:36:31;;;;;;;4.38;0.70;;;;;;;;;;5044802;28;20103;-54
2022/07/11 10:39:13;;;;;;;6.18;1.27;;;;;;;;;;5049831;28;20025;-52
2022/07/11 10:41:39;;;;;;;3.00;1.13;;;23.90;90.30;;;;;;5053267;28;20044;-56
2022/07/11 10:44:05;;;;;;;4.57;1.05;;;23.80;90.90;;;;;;5052774;28;20033;-51
2022/07/11 10:46:31;;;;;;;2.22;0.82;;;23.50;90.60;;;;;;5004215;28;20041;-52
2022/07/11 10:49:15;;;;;;;3.70;1.05;;;23.40;90.20;;;;;;5046192;28;20035;-51
2022/07/11 10:51:44;;;;;;;1.67;0.70;;;23.50;90.70;;;;;;5015330;28;20053;-57
2022/07/11 10:54:35;;;;;;;1.48;0.75;;;23.80;90.60;;;;;;5042856;28;20041;-51
2022/07/11 10:57:14;;;;;;;4.23;1.30;;;23.80;89.30;;;;;;5044610;28;20531;-52
2022/07/11 11:00:03;;;;;;;2.88;0.82;;;24.00;88.90;;;;;;5060017;28;20077;-49
2022/07/11 11:02:30;;;;;;;12.90;2.97;;;24.00;88.90;;;;;;4993929;28;20390;-51
2022/07/11 11:05:00;;;;;;;6.85;1.55;;;23.80;89.90;;;;;;5050534;28;20123;-51
2022/07/11 11:07:44;;;;;;;2.00;0.82;;;23.60;89.70;;;;;;5044018;28;20459;-51
2022/07/11 11:10:18;;;;;;;9.80;3.13;;;23.40;90.20;;;;;;5049151;28;20133;-50
2022/07/11 11:13:06;;;;;;;40.47;4.05;;;23.10;90.40;;;;;;5052295;28;20024;-55
2022/07/11 11:15:49;;;;;;;1.65;0.90;;;23.40;90.50;;;;;;5054610;28;20048;-50
2022/07/11 11:18:34;;;;;;;3.47;1.00;;;23.50;90.80;;;;;;5061060;28;20047;-50
2022/07/11 11:23:31;;;;;;;2.42;1.10;;;25.00;91.00;;;;;;5059833;28;20102;-51
2022/07/11 11:26:16;;;;;;;5.27;0.80;;;25.00;88.90;;;;;;5060598;28;20041;-51
2022/07/11 11:29:02;;;;;;;1.77;1.08;;;24.70;87.50;;;;;;5060630;28;20285;-55
2022/07/11 11:31:32;;;;;;;3.03;1.13;;;24.60;87.60;;;;;;5063970;28;20060;-53
2022/07/11 11:34:00;;;;;;;2.83;0.80;;;24.10;88.70;;;;;;5052121;28;20032;-51
2022/07/11 11:36:27;;;;;;;2.63;0.90;;;24.00;89.70;;;;;;5057661;28;20098;-52
2022/07/11 11:38:53;;;;;;;4.18;1.10;;;23.50;88.20;;;;;;5062609;28;20392;-53
2022/07/11 11:41:24;;;;;;;2.75;1.05;;;23.70;89.10;;;;;;5070601;28;20028;-55
2022/07/11 11:43:52;;;;;;;4.40;1.10;;;23.40;88.40;;;;;;5004347;28;20474;-49
2022/07/11 11:46:18;;;;;;;2.92;1.50;;;23.70;89.20;;;;;;5057632;28;20040;-52
2022/07/11 11:48:46;;;;;;;3.67;0.65;;;23.80;87.50;;;;;;4996947;28;20033;-55
2022/07/11 11:51:15;;;;;;;1.58;0.80;;;24.40;87.90;;;;;;5051156;28;20029;-53
2022/07/11 11:53:48;;;;;;;9.88;2.45;;;25.00;88.10;;;;;;5054459;28;20032;-50
2022/07/11 11:56:28;;;;;;;1.20;0.63;;;25.40;90.20;;;;;;5057496;28;20029;-51
2022/07/11 11:58:57;;;;;;;4.22;1.00;;;25.80;85.70;;;;;;5056315;28;20086;-50
2022/07/11 12:01:28;;;;;;;2.88;1.00;;;25.30;87.50;;;;;;5059963;28;20041;-51
2022/07/11 12:03:59;;;;;;;1.83;0.70;;;24.80;88.60;;;;;;5062541;28;20036;-50
2022/07/11 12:06:26;;;;;;;1.30;0.70;;;25.20;88.10;;;;;;5053768;28;20029;-51
2022/07/11 12:08:58;;;;;;;1.65;0.68;;;25.00;86.20;;;;;;5052018;28;20095;-51
2022/07/11 12:11:24;;;;;;;5.57;1.08;;;25.30;86.70;;;;;;5047714;28;20492;-52
2022/07/11 12:13:59;;;;;;;0.57;0.50;;;24.80;86.50;;;;;;5009583;28;20068;-51
2022/07/11 12:16:43;;;;;;;3.35;1.17;;;24.10;84.10;;;;;;5051946;28;20044;-51
2022/07/11 12:19:19;;;;;;;1.52;0.57;;;24.10;85.30;;;;;;5057559;28;20059;-50
2022/07/11 12:21:50;;;;;;;5.57;0.73;;;24.00;85.40;;;;;;5048511;28;20431;-52
2022/07/11 12:24:19;;;;;;;1.02;0.47;;;23.80;85.00;;;;;;5046156;28;20037;-52
2022/07/11 12:26:46;;;;;;;2.63;0.80;;;23.90;85.20;;;;;;5046870;28;20033;-54
2022/07/11 12:29:16;;;;;;;3.20;0.90;;;24.10;85.90;;;;;;5053958;28;20068;-50
2022/07/11 12:32:02;;;;;;;2.28;0.73;;;24.40;85.10;;;;;;5045297;28;20401;-51
2022/07/11 12:34:31;;;;;;;1.00;0.63;;;24.30;85.80;;;;;;4968975;28;20038;-51
2022/07/11 12:37:15;;;;;;;1.23;0.90;;;24.80;83.80;;;;;;4970402;28;20034;-51
2022/07/11 12:39:51;;;;;;;3.42;0.70;;;;;;;;;;4954538;28;20214;-51
2022/07/11 12:42:27;;;;;;;3.00;0.75;;;;;;;;;;4970713;28;20487;-51
2022/07/11 12:44:59;;;;;;;1.95;0.50;;;26.50;98.00;;;;;;4969775;28;20514;-52
2022/07/11 12:47:27;;;;;;;3.50;0.70;;;26.10;97.70;;;;;;4969934;28;20065;-52
2022/07/11 12:49:53;;;;;;;2.47;1.08;;;26.00;98.80;;;;;;4973278;28;20027;-49
2022/07/11 12:52:19;;;;;;;1.70;0.80;;;26.10;98.40;;;;;;4981202;28;20065;-58
2022/07/11 12:54:45;;;;;;;4.30;0.63;;;26.30;81.60;;;;;;4975294;28;20182;-52
2022/07/11 12:57:16;;;;;;;7.70;0.90;;;;;;;;;;4970551;28;20522;-56
2022/07/11 12:59:42;;;;;;;1.80;0.80;;;;;;;;;;4981314;28;20129;-50
2022/07/11 13:02:11;;;;;;;2.33;0.77;;;;;;;;;;4975645;28;20117;-51
2022/07/11 13:04:39;;;;;;;2.58;0.68;;;27.40;79.30;;;;;;4983694;28;20167;-51
2022/07/11 13:10:18;;;;;;;3.30;0.85;;;27.30;81.30;;;;;;4976316;28;20105;-51
2022/07/11 13:12:46;;;;;;;3.97;0.60;;;27.50;81.90;;;;;;5068079;28;21478;-53